Time;durP1;ratioP1;P1;durP2;ratioP2;P2;SDS_P1;SDS_P2;PMS_P1;PMS_P2;Temp;Humidity;BMP_temperature;BMP_pressure;BME280_temperature;BME280_humidity;BME280_pressure;Samples;Min_cycle;Max_cycle;Signal;HPM_P1;HPM_P2
2021/04/09 00:01:26;;;;;;;;;;;;;;;;;;;;;
2021/04/09 00:11:26;;;;;;;;;;;;;;;;;;;;;
2021/04/09 00:14:11;;;;;;;;;;;;;;;;;;;;;
2021/04/09 00:20:16;;;;;;;7.03;2.73;;;3.20;99.90;;;;;;6206792;23;20048;-81
2021/04/09 00:23:30;;;;;;;8.25;3.28;;;3.10;99.90;;;;;;6257278;22;20044;-81
2021/04/09 00:26:58;;;;;;;;;;;;;;;;;;;;;
2021/04/09 00:41:35;;;;;;;6.63;3.20;;;3.00;99.90;;;;;;6053201;23;20108;-82
2021/04/09 00:44:48;;;;;;;;;;;3.00;99.90;;;;;;6158614;22;20368;-81
2021/04/09 00:48:06;;;;;;;8.82;2.65;;;3.00;99.90;;;;;;6270326;22;19927;-81
2021/04/09 00:51:31;;;;;;;;;;;;;;;;;;;;;
2021/04/09 00:54:39;;;;;;;13.60;3.00;;;2.90;99.90;;;;;;6255998;22;20047;-83
2021/04/09 00:57:39;;;;;;;13.33;3.20;;;2.90;99.90;;;;;;6288747;22;20023;-82
2021/04/09 01:00:17;;;;;;;6.87;3.13;;;2.90;99.90;;;;;;6287914;22;20035;-80
2021/04/09 01:02:47;;;;;;;8.65;3.00;;;2.80;99.90;;;;;;6286240;22;20095;-81
2021/04/09 01:05:36;;;;;;;;;;;;;;;;;;;;;
2021/04/09 01:08:08;;;;;;;9.23;3.27;;;2.90;99.90;;;;;;6296222;22;20014;-81
2021/04/09 01:11:06;;;;;;;8.43;3.60;;;2.80;99.90;;;;;;6299411;22;20011;-81
2021/04/09 01:13:38;;;;;;;5.40;2.83;;;2.80;99.90;;;;;;6299555;22;19999;-81
2021/04/09 01:16:29;;;;;;;4.80;2.67;;;2.70;99.90;;;;;;6252999;22;20014;-81
2021/04/09 01:19:29;;;;;;;;;;;2.60;99.90;;;;;;6299275;22;20012;-81
2021/04/09 01:22:15;;;;;;;7.53;3.13;;;2.70;99.90;;;;;;6272733;22;20158;-81
2021/04/09 01:25:30;;;;;;;;;;;;;;;;;;;;;
2021/04/09 01:28:57;;;;;;;6.80;2.83;;;2.60;99.90;;;;;;6284117;22;20043;-82
2021/04/09 01:35:15;;;;;;;8.20;2.90;;;2.50;99.90;;;;;;6253239;22;20052;-81
2021/04/09 01:38:08;;;;;;;9.37;4.10;;;2.50;99.90;;;;;;6290365;22;20012;-81
2021/04/09 01:41:08;;;;;;;5.77;2.80;;;2.60;99.90;;;;;;6244947;22;20037;-80
2021/04/09 01:44:37;;;;;;;;;;;;;;;;;;;;;
2021/04/09 01:47:55;;;;;;;7.50;2.73;;;2.70;99.90;;;;;;6297863;22;20007;-81
2021/04/09 01:50:48;;;;;;;8.83;2.77;;;2.70;99.90;;;;;;6274227;22;20011;-80
2021/04/09 01:53:59;;;;;;;10.33;3.17;;;2.60;99.90;;;;;;6299040;22;20272;-80
2021/04/09 01:56:58;;;;;;;;;;;;;;;;;;;;;
2021/04/09 01:59:28;;;;;;;6.37;3.13;;;2.70;99.90;;;;;;6226525;23;20012;-81
2021/04/09 02:01:56;;;;;;;;;;;2.70;99.90;;;;;;6268551;23;20011;-80
2021/04/09 02:04:29;;;;;;;12.23;3.50;;;2.80;99.90;;;;;;6269113;23;19954;-79
2021/04/09 02:07:00;;;;;;;10.50;3.23;;;2.70;99.90;;;;;;6243791;23;20012;-81
2021/04/09 02:09:38;;;;;;;7.43;2.80;;;2.70;99.90;;;;;;6293042;22;20046;-80
2021/04/09 02:12:07;;;;;;;7.47;3.37;;;2.70;99.90;;;;;;6243912;23;20016;-80
2021/04/09 02:14:36;;;;;;;7.07;2.60;;;2.80;99.90;;;;;;6242000;23;20012;-81
2021/04/09 02:17:04;;;;;;;6.20;3.20;;;2.80;99.90;;;;;;6264025;23;20015;-81
2021/04/09 02:19:37;;;;;;;8.37;3.43;;;2.80;99.90;;;;;;6238413;23;20015;-80
2021/04/09 02:22:04;;;;;;;8.33;3.20;;;2.80;99.90;;;;;;6237470;23;20497;-81
2021/04/09 02:24:35;;;;;;;7.53;3.07;;;2.80;99.90;;;;;;6240010;23;20430;-81
2021/04/09 02:27:04;;;;;;;6.47;2.97;;;2.80;99.90;;;;;;6240088;23;20008;-81
2021/04/09 02:29:38;;;;;;;12.33;3.37;;;2.80;99.90;;;;;;6266350;22;20306;-80
2021/04/09 02:32:06;;;;;;;8.93;3.20;;;2.80;99.90;;;;;;6260317;23;20026;-81
2021/04/09 02:34:35;;;;;;;4.25;2.45;;;2.80;99.90;;;;;;6259815;23;20008;-81
2021/04/09 02:37:05;;;;;;;9.13;3.47;;;2.80;99.90;;;;;;6235950;23;20004;-81
2021/04/09 02:39:39;;;;;;;7.77;3.13;;;2.80;99.90;;;;;;6258204;22;20312;-81
2021/04/09 02:42:09;;;;;;;7.53;3.17;;;2.90;99.90;;;;;;6267979;23;20327;-79
2021/04/09 02:44:40;;;;;;;7.37;3.37;;;2.80;99.90;;;;;;6236614;23;20338;-81
2021/04/09 02:47:15;;;;;;;10.60;3.47;;;2.80;99.90;;;;;;6232426;23;20040;-82
2021/04/09 02:49:56;;;;;;;7.77;3.33;;;2.80;99.90;;;;;;6258470;22;20053;-81
2021/04/09 02:52:29;;;;;;;12.63;3.70;;;2.70;99.90;;;;;;6232162;23;20038;-80
2021/04/09 02:55:13;;;;;;;11.53;2.97;;;2.80;99.90;;;;;;6235087;23;20036;-80
2021/04/09 02:57:52;;;;;;;;;;;;;;;;;;;;;
2021/04/09 03:00:29;;;;;;;8.20;3.40;;;2.80;99.90;;;;;;6264306;23;20012;-80
2021/04/09 03:03:00;;;;;;;8.17;3.53;;;2.80;99.90;;;;;;6238368;23;20004;-81
2021/04/09 03:05:38;;;;;;;7.13;3.50;;;2.80;99.90;;;;;;6260204;23;20044;-81
2021/04/09 03:08:07;;;;;;;9.93;3.37;;;2.70;99.90;;;;;;6287415;22;20036;-81
2021/04/09 03:10:36;;;;;;;10.35;3.78;;;2.70;99.90;;;;;;6209380;23;20015;-81
2021/04/09 03:13:08;;;;;;;8.30;3.50;;;2.70;99.90;;;;;;6234473;23;20236;-80
2021/04/09 03:15:44;;;;;;;;;;;2.70;99.90;;;;;;6235148;23;20295;-81
2021/04/09 03:18:29;;;;;;;7.93;3.30;;;2.70;99.90;;;;;;6239112;23;19960;-79
2021/04/09 03:21:05;;;;;;;7.93;3.47;;;2.70;99.90;;;;;;6240176;23;20016;-80
2021/04/09 03:23:34;;;;;;;6.80;3.63;;;2.70;99.90;;;;;;6270092;23;20023;-80
2021/04/09 03:26:10;;;;;;;6.80;3.53;;;2.70;99.90;;;;;;6269631;23;20233;-81
2021/04/09 03:28:57;;;;;;;13.47;4.47;;;2.70;99.90;;;;;;6268239;23;20015;-81
2021/04/09 03:31:27;;;;;;;9.77;4.57;;;2.80;99.90;;;;;;6243091;23;20033;-81
2021/04/09 03:33:55;;;;;;;8.43;3.30;;;2.80;99.90;;;;;;6240104;23;20007;-80
2021/04/09 03:36:27;;;;;;;9.60;4.47;;;2.70;99.90;;;;;;6239026;23;20335;-81
2021/04/09 03:38:58;;;;;;;9.17;3.40;;;2.80;99.90;;;;;;6210681;23;20007;-81
2021/04/09 03:41:35;;;;;;;9.33;3.70;;;2.70;99.90;;;;;;6208975;23;20048;-80
2021/04/09 03:44:17;;;;;;;7.77;3.80;;;2.80;99.90;;;;;;6233450;23;20044;-82
2021/04/09 03:46:55;;;;;;;6.87;3.47;;;2.90;99.90;;;;;;6231559;23;20009;-82
2021/04/09 03:49:25;;;;;;;6.28;3.15;;;2.80;99.90;;;;;;6256179;23;20304;-82
2021/04/09 03:51:56;;;;;;;9.27;3.80;;;2.80;99.90;;;;;;6240969;23;20027;-81
2021/04/09 03:54:26;;;;;;;9.83;3.50;;;2.70;99.90;;;;;;6266109;23;20244;-81
2021/04/09 03:56:55;;;;;;;8.48;4.00;;;2.70;99.90;;;;;;6263691;23;20012;-80
2021/04/09 03:59:26;;;;;;;10.07;3.88;;;2.80;99.90;;;;;;6235072;23;20008;-81
2021/04/09 04:01:57;;;;;;;11.27;3.83;;;2.70;99.90;;;;;;6210840;23;20232;-81
2021/04/09 04:04:55;;;;;;;7.43;2.83;;;2.70;99.90;;;;;;6259821;23;20015;-80
2021/04/09 04:07:27;;;;;;;7.10;3.50;;;2.80;99.90;;;;;;6258370;23;20052;-81
2021/04/09 04:09:57;;;;;;;7.87;3.80;;;2.70;99.90;;;;;;6257707;23;20043;-81
2021/04/09 04:12:26;;;;;;;9.07;4.33;;;2.80;99.90;;;;;;6259046;23;20029;-81
2021/04/09 04:14:57;;;;;;;11.13;4.90;;;2.80;99.90;;;;;;6262801;23;20011;-80
2021/04/09 04:17:24;;;;;;;9.27;4.60;;;2.80;99.90;;;;;;6266028;23;20011;-81
2021/04/09 04:19:56;;;;;;;9.20;2.90;;;2.80;99.90;;;;;;6268203;23;20008;-80
2021/04/09 04:22:29;;;;;;;6.97;3.30;;;2.80;99.90;;;;;;6270587;22;20019;-80
2021/04/09 04:24:57;;;;;;;5.77;3.37;;;2.80;99.90;;;;;;6296055;22;20015;-79
2021/04/09 04:27:26;;;;;;;10.93;3.73;;;2.80;99.90;;;;;;6194272;23;20019;-80
2021/04/09 04:29:56;;;;;;;9.23;4.13;;;2.80;99.90;;;;;;6244111;23;20008;-80
2021/04/09 04:32:28;;;;;;;11.77;4.60;;;2.80;99.90;;;;;;6270059;23;20018;-81
2021/04/09 04:35:11;;;;;;;13.97;3.93;;;2.80;99.90;;;;;;6269590;23;20012;-81
2021/04/09 04:37:46;;;;;;;7.97;3.27;;;2.80;99.90;;;;;;6240679;23;20008;-81
2021/04/09 04:40:18;;;;;;;12.03;4.27;;;2.80;99.90;;;;;;6240330;23;20011;-81
2021/04/09 04:42:49;;;;;;;13.27;4.57;;;2.80;99.90;;;;;;6263504;23;20008;-81
2021/04/09 04:45:17;;;;;;;9.83;4.47;;;2.80;99.90;;;;;;6233747;23;20004;-81
2021/04/09 04:47:46;;;;;;;9.73;3.77;;;2.80;99.90;;;;;;6211609;23;20015;-82
2021/04/09 04:50:26;;;;;;;6.20;3.67;;;2.90;99.90;;;;;;6235499;23;20004;-81
2021/04/09 04:52:57;;;;;;;20.47;5.47;;;2.80;99.90;;;;;;6234916;23;20019;-81
2021/04/09 04:55:24;;;;;;;9.70;3.70;;;2.90;99.90;;;;;;6262828;22;20015;-81
2021/04/09 04:57:57;;;;;;;8.87;3.83;;;2.90;99.90;;;;;;6235465;23;20322;-81
2021/04/09 05:00:28;;;;;;;8.43;3.57;;;2.90;99.90;;;;;;6233868;23;20044;-81
2021/04/09 05:02:59;;;;;;;7.97;3.50;;;2.90;99.90;;;;;;6263265;23;20012;-81
2021/04/09 05:05:27;;;;;;;9.37;4.90;;;2.90;99.90;;;;;;6233448;23;20012;-81
2021/04/09 05:08:05;;;;;;;12.18;4.47;;;2.90;99.90;;;;;;6259347;23;20023;-81
2021/04/09 05:10:35;;;;;;;15.20;4.72;;;2.90;99.90;;;;;;6259600;22;20027;-82
2021/04/09 05:13:04;;;;;;;9.73;4.47;;;3.00;99.90;;;;;;6256100;23;20040;-82
2021/04/09 05:15:34;;;;;;;8.57;4.40;;;3.00;99.90;;;;;;6258617;23;20318;-81
2021/04/09 05:18:06;;;;;;;7.83;4.20;;;3.10;99.90;;;;;;6233228;23;20016;-79
2021/04/09 05:20:36;;;;;;;12.20;4.53;;;3.10;99.90;;;;;;6268062;23;20004;-80
2021/04/09 05:23:18;;;;;;;9.10;4.53;;;3.10;99.90;;;;;;6238667;23;20260;-81
2021/04/09 05:25:48;;;;;;;14.80;4.63;;;3.20;99.90;;;;;;6231349;23;20011;-82
2021/04/09 05:28:30;;;;;;;;;;;;;;;;;;;;;
2021/04/09 05:31:27;;;;;;;14.30;4.37;;;3.30;99.90;;;;;;6263811;23;20008;-82
2021/04/09 05:33:58;;;;;;;7.33;3.20;;;3.30;99.90;;;;;;6264079;23;20012;-81
2021/04/09 05:36:28;;;;;;;6.00;3.50;;;3.40;99.40;;;;;;6236097;23;20004;-82
2021/04/09 05:38:57;;;;;;;11.70;3.88;;;3.40;99.50;;;;;;6261706;23;20051;-81
2021/04/09 05:41:26;;;;;;;6.97;2.53;;;3.50;99.30;;;;;;6264827;22;20012;-81
2021/04/09 05:43:57;;;;;;;7.97;4.03;;;3.50;99.20;;;;;;6235717;23;20019;-81
2021/04/09 05:46:24;;;;;;;7.53;3.97;;;3.60;99.10;;;;;;6241911;23;20015;-80
2021/04/09 05:48:58;;;;;;;7.83;3.97;;;3.60;98.90;;;;;;6218152;23;20015;-80
2021/04/09 05:51:27;;;;;;;8.00;3.83;;;3.70;98.70;;;;;;6291765;22;20016;-80
2021/04/09 05:53:56;;;;;;;10.93;4.50;;;3.70;98.50;;;;;;6239626;23;20027;-80
2021/04/09 05:56:26;;;;;;;11.50;4.13;;;3.80;98.50;;;;;;6239904;23;20015;-81
2021/04/09 05:58:59;;;;;;;7.47;3.70;;;4.00;98.30;;;;;;6239059;23;20303;-81
2021/04/09 06:01:57;;;;;;;4.67;3.03;;;3.90;97.80;;;;;;6222518;23;20004;-80
2021/04/09 06:04:58;;;;;;;9.02;3.38;;;4.00;97.80;;;;;;6291062;22;20473;-82
2021/04/09 06:07:56;;;;;;;10.47;4.57;;;4.20;97.60;;;;;;6192636;23;20019;-82
2021/04/09 06:10:59;;;;;;;;;;;;;;;;;;;;;
2021/04/09 06:13:47;;;;;;;13.07;4.37;;;4.30;96.90;;;;;;6284879;22;20253;-81
2021/04/09 06:16:16;;;;;;;7.47;3.10;;;4.40;96.60;;;;;;6259267;22;20031;-82
2021/04/09 06:18:46;;;;;;;8.30;3.75;;;4.50;96.40;;;;;;6233375;23;20040;-81
2021/04/09 06:21:35;;;;;;;8.17;4.07;;;4.60;96.20;;;;;;6267145;23;20016;-81
2021/04/09 06:24:07;;;;;;;7.90;3.90;;;4.60;96.10;;;;;;6242711;23;20248;-81
2021/04/09 06:27:00;;;;;;;9.83;4.40;;;4.70;95.90;;;;;;6261625;22;20253;-81
2021/04/09 06:30:18;;;;;;;9.43;3.93;;;4.80;95.70;;;;;;6259660;23;20008;-82
2021/04/09 06:36:52;;;;;;;9.67;3.93;;;5.10;95.10;;;;;;6234679;23;20064;-81
2021/04/09 06:40:50;;;;;;;9.87;4.93;;;5.30;94.70;;;;;;6263351;23;20012;-81
2021/04/09 06:43:40;;;;;;;9.37;4.10;;;5.60;94.00;;;;;;6262009;23;20251;-83
2021/04/09 06:46:48;;;;;;;10.70;4.10;;;5.80;93.00;;;;;;6237333;23;20016;-81
2021/04/09 06:49:37;;;;;;;10.00;4.57;;;5.90;92.20;;;;;;6237901;23;20008;-81
2021/04/09 06:52:06;;;;;;;5.65;2.58;;;6.00;91.70;;;;;;6234011;23;20016;-81
2021/04/09 06:54:38;;;;;;;16.50;4.68;;;6.00;91.00;;;;;;6235005;23;20008;-81
2021/04/09 06:57:14;;;;;;;8.38;3.85;;;6.10;91.20;;;;;;6261765;22;20008;-82
2021/04/09 06:59:46;;;;;;;8.65;3.45;;;6.20;90.10;;;;;;6265299;23;20012;-81
2021/04/09 07:02:17;;;;;;;12.43;5.13;;;6.30;89.10;;;;;;6218231;23;20019;-82
2021/04/09 07:05:08;;;;;;;7.28;2.47;;;6.30;89.50;;;;;;6269834;23;20008;-81
2021/04/09 07:07:59;;;;;;;7.15;2.28;;;6.30;88.30;;;;;;6245195;23;20335;-80
2021/04/09 07:10:58;;;;;;;8.57;3.83;;;6.40;88.00;;;;;;6269244;23;20008;-82
2021/04/09 07:13:38;;;;;;;9.10;2.30;;;6.50;87.60;;;;;;6267922;23;20015;-81
2021/04/09 07:16:17;;;;;;;6.43;1.83;;;6.60;86.10;;;;;;6243102;23;20008;-82
2021/04/09 07:18:50;;;;;;;10.73;4.07;;;6.60;85.00;;;;;;6263062;23;20016;-82
2021/04/09 07:21:26;;;;;;;8.93;4.47;;;6.60;85.30;;;;;;6238852;23;20061;-81
2021/04/09 07:24:18;;;;;;;8.63;3.72;;;6.70;85.10;;;;;;6265298;23;20012;-81
2021/04/09 07:26:49;;;;;;;5.97;2.28;;;6.90;82.70;;;;;;6296318;22;20019;-81
2021/04/09 07:34:06;;;;;;;9.98;5.15;;;7.00;82.60;;;;;;6001894;23;20055;-80
2021/04/09 07:44:28;;;;;;;5.82;2.42;;;7.30;79.70;;;;;;6261688;23;20020;-82
2021/04/09 07:47:30;;;;;;;16.02;4.82;;;7.10;80.00;;;;;;6264699;23;20016;-81
2021/04/09 07:50:38;;;;;;;5.93;2.90;;;7.30;80.00;;;;;;6239495;23;20011;-81
2021/04/09 07:53:45;;;;;;;;;;;;;;;;;;;;;
2021/04/09 07:56:18;;;;;;;13.45;3.85;;;7.50;79.10;;;;;;6178412;23;20044;-82
2021/04/09 07:58:58;;;;;;;9.80;3.72;;;7.60;78.60;;;;;;6263652;22;20011;-81
2021/04/09 08:02:04;;;;;;;13.18;4.72;;;7.80;76.50;;;;;;6236254;23;20016;-81
2021/04/09 08:04:40;;;;;;;9.63;4.18;;;7.90;76.30;;;;;;6288805;22;20012;-81
2021/04/09 08:08:26;;;;;;;11.50;4.88;;;8.00;75.10;;;;;;6262373;23;20252;-82
2021/04/09 08:11:18;;;;;;;9.20;4.50;;;8.20;75.00;;;;;;6262903;23;20015;-82
2021/04/09 08:14:19;;;;;;;9.85;2.15;;;8.40;73.30;;;;;;6218357;23;20019;-81
2021/04/09 08:17:17;;;;;;;9.30;3.05;;;8.10;73.00;;;;;;6255871;23;20044;-81
2021/04/09 08:20:09;;;;;;;4.75;1.73;;;8.10;73.20;;;;;;6237022;23;20015;-81
2021/04/09 08:22:59;;;;;;;9.07;3.60;;;8.10;72.80;;;;;;6243382;23;20008;-80
2021/04/09 08:28:37;;;;;;;4.80;2.22;;;8.40;72.50;;;;;;6263251;23;20008;-81
2021/04/09 08:34:48;;;;;;;6.88;2.97;;;8.20;71.80;;;;;;6240516;23;20022;-81
2021/04/09 08:43:48;;;;;;;;;;;8.40;71.80;;;;;;6259722;23;20015;-82
2021/04/09 08:46:39;;;;;;;5.55;2.55;;;8.30;71.90;;;;;;6261173;23;19924;-82
2021/04/09 08:52:40;;;;;;;2.92;1.50;;;8.30;71.70;;;;;;6157200;23;20037;-81
2021/04/09 08:55:41;;;;;;;;;;;8.40;71.20;;;;;;6167941;23;20057;-82
2021/04/09 09:02:57;;;;;;;8.52;4.78;;;8.80;70.20;;;;;;5967255;24;20426;-82
2021/04/09 09:05:57;;;;;;;11.35;4.20;;;9.10;69.50;;;;;;6032807;23;20090;-80
2021/04/09 09:08:59;;;;;;;7.82;4.40;;;9.40;68.00;;;;;;6061098;23;20026;-82
2021/04/09 09:12:09;;;;;;;6.60;2.85;;;9.50;65.80;;;;;;6120411;23;20002;-82
2021/04/09 09:19:10;;;;;;;6.35;3.88;;;9.50;65.90;;;;;;5990998;23;20047;-82
2021/04/09 09:26:10;;;;;;;8.07;4.32;;;9.30;65.30;;;;;;6117353;23;20013;-82
2021/04/09 09:33:30;;;;;;;;;;;;;;;;;;;;;
2021/04/09 09:45:08;;;;;;;6.97;3.42;;;9.90;62.80;;;;;;6173506;23;20025;-81
2021/04/09 09:52:58;;;;;;;4.40;2.00;;;10.10;61.70;;;;;;6150953;23;20021;-81
2021/04/09 10:00:58;;;;;;;;;;;;;;;;;;;;;
2021/04/09 10:27:56;;;;;;;5.53;1.83;;;11.70;53.90;;;;;;6188222;22;20028;-82
2021/04/09 10:38:55;;;;;;;;;;;;;;;;;;;;;
2021/04/09 10:42:38;;;;;;;7.40;3.35;;;13.10;50.20;;;;;;6041538;23;20252;-80
2021/04/09 17:02:36;;;;;;;;;;;;;;;;;;;;;
